createdAt,value
2024-03-12T00:01:53.297Z,18.97
2024-03-12T00:04:21.621Z,19.53
2024-03-12T00:06:50.150Z,21.00
2024-03-12T00:09:20.437Z,20.93
2024-03-12T00:11:49.336Z,20.67
2024-03-12T00:14:17.644Z,20.63
2024-03-12T00:16:46.218Z,22.73
2024-03-12T00:19:14.582Z,20.67
2024-03-12T00:21:44.129Z,21.03
2024-03-12T00:24:13.206Z,21.20
2024-03-12T00:26:45.945Z,24.13
2024-03-12T00:29:16.598Z,21.30
2024-03-12T00:31:44.951Z,22.67
2024-03-12T00:34:13.349Z,24.67
2024-03-12T00:36:43.264Z,24.40
2024-03-12T00:39:13.804Z,25.83
2024-03-12T00:41:44.034Z,26.83
2024-03-12T00:44:12.399Z,25.77
2024-03-12T00:46:41.394Z,25.70
2024-03-12T00:49:10.408Z,26.57
2024-03-12T00:51:39.692Z,24.93
2024-03-12T00:54:08.305Z,28.27
2024-03-12T00:56:37.175Z,27.07
2024-03-12T00:59:08.387Z,25.80
2024-03-12T01:01:37.005Z,26.50
2024-03-12T01:04:07.492Z,27.77
2024-03-12T01:06:35.975Z,29.93
2024-03-12T01:09:07.546Z,29.07
2024-03-12T01:11:35.869Z,28.70
2024-03-12T01:14:04.880Z,26.97
2024-03-12T01:16:34.562Z,29.60
2024-03-12T01:19:03.352Z,31.03
2024-03-12T01:21:33.798Z,29.33
2024-03-12T01:24:02.477Z,28.67
2024-03-12T01:26:31.533Z,27.70
2024-03-12T01:28:59.903Z,32.33
2024-03-12T01:31:28.360Z,31.50
2024-03-12T01:33:58.119Z,30.60
2024-03-12T01:36:35.722Z,30.73
2024-03-12T01:39:08.898Z,32.83
2024-03-12T01:41:42.953Z,32.10
2024-03-12T01:44:11.834Z,33.43
2024-03-12T01:46:40.983Z,33.47
2024-03-12T01:49:11.550Z,33.30
2024-03-12T01:51:40.305Z,34.43
2024-03-12T01:54:10.063Z,34.50
2024-03-12T01:56:38.646Z,36.47
2024-03-12T01:59:07.002Z,34.77
2024-03-12T02:01:35.597Z,36.63
2024-03-12T02:04:04.286Z,39.33
2024-03-12T02:06:34.093Z,40.13
2024-03-12T02:09:04.723Z,39.47
2024-03-12T02:11:33.370Z,38.03
2024-03-12T02:14:02.133Z,38.90
2024-03-12T02:16:30.506Z,39.17
2024-03-12T02:18:58.982Z,38.83
2024-03-12T02:21:27.351Z,37.87
2024-03-12T02:23:57.970Z,38.47
2024-03-12T02:26:26.966Z,39.87
2024-03-12T02:28:55.452Z,38.40
2024-03-12T02:31:24.119Z,38.17
2024-03-12T02:33:53.438Z,38.07
2024-03-12T02:36:22.219Z,39.13
2024-03-12T02:38:50.870Z,42.50
2024-03-12T02:41:23.038Z,40.73
2024-03-12T02:43:52.838Z,40.77
2024-03-12T02:46:23.728Z,39.47
2024-03-12T02:48:54.047Z,40.50
2024-03-12T02:51:24.919Z,40.33
2024-03-12T02:53:53.397Z,39.03
2024-03-12T02:56:23.208Z,36.50
2024-03-12T02:58:51.903Z,40.27
2024-03-12T03:01:20.505Z,39.90
2024-03-12T03:03:49.076Z,40.77
2024-03-12T03:06:18.409Z,37.50
2024-03-12T03:08:46.856Z,40.17
2024-03-12T03:11:15.705Z,39.50
2024-03-12T03:13:45.562Z,37.07
2024-03-12T03:16:13.989Z,36.33
2024-03-12T03:18:42.662Z,35.70
2024-03-12T03:21:11.404Z,32.83
2024-03-12T03:23:42.589Z,36.20
2024-03-12T03:26:10.938Z,35.33
2024-03-12T03:28:39.474Z,36.43
2024-03-12T03:31:11.969Z,37.13
2024-03-12T03:33:40.767Z,35.53
2024-03-12T03:36:09.246Z,35.77
2024-03-12T03:38:41.612Z,36.67
2024-03-12T03:41:10.847Z,39.83
2024-03-12T03:43:44.253Z,39.77
2024-03-12T03:46:14.189Z,37.30
2024-03-12T03:48:42.620Z,37.30
2024-03-12T03:51:11.353Z,39.27
2024-03-12T03:53:41.324Z,40.67
2024-03-12T03:56:17.205Z,45.47
2024-03-12T03:58:45.718Z,44.23
2024-03-12T04:01:16.054Z,41.07
2024-03-12T04:03:44.499Z,44.57
2024-03-12T04:06:13.651Z,46.53
2024-03-12T04:08:41.947Z,47.50
2024-03-12T04:11:11.017Z,45.70
2024-03-12T04:13:41.728Z,45.53
2024-03-12T04:16:11.715Z,45.87
2024-03-12T04:18:45.057Z,44.30
2024-03-12T04:21:14.205Z,46.67
2024-03-12T04:23:43.743Z,47.10
2024-03-12T04:26:12.754Z,47.23
2024-03-12T04:28:41.731Z,50.33
2024-03-12T04:31:10.173Z,48.87
2024-03-12T04:33:38.591Z,48.23
2024-03-12T04:36:09.805Z,48.37
2024-03-12T04:38:38.181Z,54.73
2024-03-12T04:41:06.583Z,55.07
2024-03-12T04:43:34.929Z,61.37
2024-03-12T04:46:05.332Z,59.10
2024-03-12T04:48:33.831Z,60.63
2024-03-12T04:51:02.179Z,60.20
2024-03-12T04:53:32.422Z,56.13
2024-03-12T04:56:01.184Z,56.90
2024-03-12T04:58:30.328Z,54.17
2024-03-12T05:00:59.073Z,57.03
2024-03-12T05:03:27.577Z,59.80
2024-03-12T05:05:56.006Z,56.03
2024-03-12T05:08:24.317Z,62.50
2024-03-12T05:10:54.895Z,55.67
2024-03-12T05:13:23.330Z,64.77
2024-03-12T05:15:51.981Z,62.13
2024-03-12T05:18:20.342Z,60.60
2024-03-12T05:20:48.778Z,62.57
2024-03-12T05:23:17.122Z,60.93
2024-03-12T05:25:47.565Z,60.87
2024-03-12T05:28:17.492Z,67.43
2024-03-12T05:30:46.072Z,65.67
2024-03-12T05:33:16.489Z,62.33
2024-03-12T05:35:49.042Z,64.87
2024-03-12T05:38:33.671Z,69.40
2024-03-12T05:41:16.200Z,64.43
2024-03-12T05:44:04.183Z,67.83
2024-03-12T05:46:50.443Z,65.90
2024-03-12T05:49:20.762Z,62.77
2024-03-12T05:51:49.307Z,62.90
2024-03-12T05:54:17.675Z,64.07
2024-03-12T05:56:46.081Z,61.70
2024-03-12T05:59:16.176Z,65.70
2024-03-12T06:01:44.762Z,69.93
2024-03-12T06:04:13.551Z,63.07
2024-03-12T06:06:42.033Z,67.27
2024-03-12T06:09:11.500Z,68.53
2024-03-12T06:11:40.370Z,63.33
2024-03-12T06:14:10.232Z,60.10
2024-03-12T06:16:46.086Z,62.70
2024-03-12T06:19:14.938Z,55.70
2024-03-12T06:21:43.990Z,55.37
2024-03-12T06:24:13.052Z,57.63
2024-03-12T06:26:41.868Z,56.70
2024-03-12T06:29:10.933Z,51.63
2024-03-12T06:31:41.303Z,52.70
2024-03-12T06:34:09.744Z,54.10
2024-03-12T06:36:39.169Z,53.40
2024-03-12T06:39:07.942Z,48.43
2024-03-12T06:41:36.305Z,48.97
2024-03-12T06:44:08.995Z,48.70
2024-03-12T06:46:37.354Z,45.20
2024-03-12T06:49:08.477Z,46.43
2024-03-12T06:51:36.958Z,44.10
2024-03-12T06:54:05.460Z,51.53
2024-03-12T06:56:40.751Z,43.47
2024-03-12T06:59:10.259Z,42.57
2024-03-12T07:01:42.258Z,46.23
2024-03-12T07:04:12.329Z,48.40
2024-03-12T07:06:42.269Z,45.40
2024-03-12T07:09:14.590Z,44.30
2024-03-12T07:11:43.751Z,44.73
2024-03-12T07:14:24.387Z,43.60
2024-03-12T07:16:52.729Z,42.50
2024-03-12T07:19:23.719Z,39.27
2024-03-12T07:21:53.647Z,42.33
2024-03-12T07:24:21.962Z,37.70
2024-03-12T07:30:19.065Z,40.70
2024-03-12T07:32:48.226Z,37.13
2024-03-12T07:35:19.081Z,34.13
2024-03-12T07:37:47.403Z,36.80
2024-03-12T07:40:17.591Z,33.47
2024-03-12T07:42:46.498Z,35.00
2024-03-12T07:45:17.166Z,31.30
2024-03-12T07:47:45.751Z,31.70
2024-03-12T07:50:17.048Z,28.80
2024-03-12T07:52:47.348Z,28.40
2024-03-12T07:55:15.781Z,26.63
2024-03-12T07:57:44.155Z,29.20
2024-03-12T08:00:16.583Z,27.07
2024-03-12T08:02:45.077Z,21.83
2024-03-12T08:05:14.089Z,21.37
2024-03-12T08:07:46.016Z,19.70
2024-03-12T08:10:16.215Z,19.93
2024-03-12T08:12:44.712Z,18.13
2024-03-12T08:15:14.430Z,18.40
2024-03-12T08:17:45.549Z,21.00
2024-03-12T08:20:19.087Z,17.37
2024-03-12T08:22:48.645Z,18.30
2024-03-12T08:25:21.962Z,18.63
2024-03-12T08:27:50.779Z,18.43
2024-03-12T08:30:19.677Z,21.07
2024-03-12T08:32:48.139Z,17.23
2024-03-12T08:35:17.897Z,17.60
2024-03-12T08:37:46.255Z,18.63
2024-03-12T08:40:15.820Z,18.10
2024-03-12T08:42:54.018Z,18.00
2024-03-12T08:45:30.570Z,18.53
2024-03-12T08:48:00.760Z,20.37
2024-03-12T08:50:29.289Z,19.07
2024-03-12T08:52:59.157Z,17.93
2024-03-12T08:55:27.797Z,17.80
2024-03-12T08:57:57.601Z,17.90
2024-03-12T09:00:27.625Z,19.37
2024-03-12T09:02:56.848Z,20.17
2024-03-12T09:05:25.341Z,18.80
2024-03-12T09:07:53.736Z,17.43
2024-03-12T09:10:22.426Z,23.37
2024-03-12T09:12:50.824Z,18.40
2024-03-12T09:15:23.638Z,19.10
2024-03-12T09:17:54.613Z,15.90
2024-03-12T09:20:22.961Z,16.87
2024-03-12T09:22:51.496Z,16.57
2024-03-12T09:25:20.403Z,17.77
2024-03-12T09:27:48.811Z,14.13
2024-03-12T09:30:19.470Z,17.50
2024-03-12T09:32:49.805Z,19.03
2024-03-12T09:35:19.978Z,17.20
2024-03-12T09:37:48.397Z,22.20
2024-03-12T09:40:17.772Z,21.33
2024-03-12T09:42:48.364Z,21.97
2024-03-12T09:45:17.258Z,21.30
2024-03-12T09:47:46.103Z,21.93
2024-03-12T09:50:18.374Z,24.97
2024-03-12T09:52:48.467Z,21.30
2024-03-12T09:55:17.884Z,22.67
2024-03-12T09:57:48.092Z,24.43
2024-03-12T10:00:20.694Z,20.00
2024-03-12T10:02:50.713Z,25.77
2024-03-12T10:05:23.074Z,23.67
2024-03-12T10:08:10.034Z,22.93
2024-03-12T10:10:40.225Z,22.80
2024-03-12T10:13:15.631Z,24.20
2024-03-12T10:15:54.876Z,21.00
2024-03-12T10:18:23.913Z,23.10
2024-03-12T10:20:57.227Z,25.63
2024-03-12T10:23:27.245Z,25.23
2024-03-12T10:25:57.540Z,28.07
2024-03-12T10:28:27.769Z,28.10
2024-03-12T10:30:56.459Z,25.53
2024-03-12T10:33:26.270Z,27.47
2024-03-12T10:35:55.919Z,29.00
2024-03-12T10:38:27.997Z,31.17
2024-03-12T10:40:59.707Z,30.40
2024-03-12T10:43:28.210Z,37.23
2024-03-12T10:45:56.878Z,30.83
2024-03-12T10:48:26.878Z,26.73
2024-03-12T10:50:57.525Z,26.90
2024-03-12T10:53:28.450Z,27.43
2024-03-12T10:55:59.452Z,29.03
2024-03-12T10:58:29.171Z,27.47
2024-03-12T11:00:58.196Z,28.13
2024-03-12T11:03:26.656Z,28.20
2024-03-12T11:05:57.166Z,27.53
2024-03-12T11:08:26.161Z,28.23
2024-03-12T11:10:55.439Z,25.13
2024-03-12T11:13:25.237Z,23.73
2024-03-12T11:15:54.143Z,22.60
2024-03-12T11:18:35.647Z,23.63
2024-03-12T11:21:05.827Z,25.03
2024-03-12T11:23:34.199Z,22.40
2024-03-12T11:26:06.392Z,19.97
2024-03-12T11:28:34.759Z,24.73
2024-03-12T11:31:05.872Z,21.20
2024-03-12T11:33:46.505Z,21.20
2024-03-12T11:36:23.602Z,23.27
2024-03-12T11:38:54.223Z,24.50
2024-03-12T11:41:22.893Z,20.17
2024-03-12T11:43:51.303Z,24.20
2024-03-12T11:46:22.357Z,21.93
2024-03-12T11:48:53.454Z,19.43
2024-03-12T11:51:24.145Z,21.97
2024-03-12T11:53:53.821Z,20.93
2024-03-12T11:56:23.781Z,23.13
2024-03-12T11:58:57.603Z,18.77
2024-03-12T12:01:34.998Z,21.67
2024-03-12T12:04:05.080Z,22.63
2024-03-12T12:06:35.444Z,21.67
2024-03-12T12:09:06.492Z,21.30
2024-03-12T12:11:36.358Z,21.83
2024-03-12T12:14:07.071Z,21.73
2024-03-12T12:16:36.583Z,26.57
2024-03-12T12:19:12.021Z,22.70
2024-03-12T12:21:46.705Z,20.17
2024-03-12T12:24:15.208Z,20.93
2024-03-12T12:26:46.651Z,19.93
2024-03-12T12:29:15.516Z,23.67
2024-03-12T12:31:44.519Z,25.60
2024-03-12T12:34:13.480Z,21.90
2024-03-12T12:36:44.980Z,21.90
2024-03-12T12:39:18.367Z,19.77
2024-03-12T12:41:47.866Z,21.67
2024-03-12T12:44:19.003Z,20.00
2024-03-12T12:46:49.382Z,16.33
2024-03-12T12:49:19.006Z,18.20
2024-03-12T12:51:48.273Z,23.87
2024-03-12T12:54:20.135Z,16.17
2024-03-12T12:56:50.374Z,16.03
2024-03-12T12:59:21.510Z,16.37
2024-03-12T13:01:51.129Z,17.10
2024-03-12T13:04:24.093Z,17.03
2024-03-12T13:06:56.908Z,17.80
2024-03-12T13:09:32.676Z,22.57
2024-03-12T13:12:01.768Z,20.03
2024-03-12T13:14:30.557Z,17.23
2024-03-12T13:17:00.186Z,17.07
2024-03-12T13:19:29.331Z,18.97
2024-03-12T13:22:00.178Z,21.57
2024-03-12T13:24:31.006Z,20.63
2024-03-12T13:27:00.299Z,21.33
2024-03-12T13:29:29.627Z,23.27
2024-03-12T13:31:58.199Z,20.80
2024-03-12T13:34:28.380Z,20.27
2024-03-12T13:36:57.871Z,21.00
2024-03-12T13:39:26.407Z,21.17
2024-03-12T13:41:56.346Z,21.80
2024-03-12T13:44:24.733Z,24.03
2024-03-12T13:50:07.030Z,24.70
2024-03-12T13:52:36.420Z,23.27
2024-03-12T13:55:05.973Z,23.23
2024-03-12T13:57:36.707Z,24.17
2024-03-12T14:00:11.272Z,25.00
2024-03-12T14:02:40.278Z,24.03
2024-03-12T14:05:09.601Z,26.93
2024-03-12T14:07:37.979Z,25.17
2024-03-12T14:10:09.383Z,25.67
2024-03-12T14:12:42.931Z,24.27
2024-03-12T14:15:11.673Z,27.40
2024-03-12T14:17:40.100Z,26.70
2024-03-12T14:20:12.380Z,23.70
2024-03-12T14:22:41.269Z,25.73
2024-03-12T14:25:14.128Z,24.70
2024-03-12T14:27:44.182Z,28.50
2024-03-12T14:30:14.642Z,25.63
2024-03-12T14:32:43.153Z,27.43
2024-03-12T14:35:12.339Z,31.93
2024-03-12T14:37:42.533Z,26.10
2024-03-12T14:40:12.193Z,26.67
2024-03-12T14:42:40.684Z,26.97
2024-03-12T14:45:11.506Z,25.40
2024-03-12T14:47:40.388Z,26.40
2024-03-12T14:50:10.517Z,25.43
2024-03-12T14:52:42.691Z,26.80
2024-03-12T14:55:15.809Z,24.50
2024-03-12T14:57:44.309Z,28.67
2024-03-12T15:00:17.966Z,27.67
2024-03-12T15:02:46.927Z,28.93
2024-03-12T15:05:16.212Z,26.97
2024-03-12T15:07:47.692Z,28.70
2024-03-12T15:10:16.908Z,25.97
2024-03-12T15:12:46.049Z,28.97
2024-03-12T15:15:16.205Z,29.40
2024-03-12T15:17:46.278Z,31.30
2024-03-12T15:20:17.265Z,28.67
2024-03-12T15:22:46.788Z,29.33
2024-03-12T15:25:22.456Z,28.03
2024-03-12T15:27:51.155Z,28.57
2024-03-12T15:30:22.879Z,30.83
2024-03-12T15:32:52.334Z,28.37
2024-03-12T15:35:20.794Z,29.20
2024-03-12T15:37:49.284Z,28.67
2024-03-12T15:40:20.680Z,29.00
2024-03-12T15:42:49.327Z,29.47
2024-03-12T15:45:17.891Z,32.73
2024-03-12T15:47:47.981Z,32.07
2024-03-12T15:50:17.628Z,31.87
2024-03-12T15:52:46.544Z,31.97
2024-03-12T15:55:15.701Z,34.30
2024-03-12T15:57:46.193Z,33.43
2024-03-12T16:00:15.858Z,35.77
2024-03-12T16:02:44.533Z,29.97
2024-03-12T16:05:14.861Z,29.73
2024-03-12T16:07:43.651Z,33.90
2024-03-12T16:10:12.713Z,28.67
2024-03-12T16:12:45.629Z,32.20
2024-03-12T16:15:15.039Z,34.97
2024-03-12T16:17:44.290Z,32.57
2024-03-12T16:20:20.709Z,31.67
2024-03-12T16:22:49.203Z,30.40
2024-03-12T16:25:18.541Z,38.70
2024-03-12T16:27:47.269Z,35.23
2024-03-12T16:30:16.466Z,32.93
2024-03-12T16:32:46.428Z,32.67
2024-03-12T16:35:17.092Z,34.10
2024-03-12T16:37:45.856Z,31.97
2024-03-12T16:40:14.749Z,36.07
2024-03-12T16:42:44.742Z,33.07
2024-03-12T16:45:13.838Z,32.80
2024-03-12T16:47:43.153Z,35.47
2024-03-12T16:50:16.508Z,32.70
2024-03-12T16:52:47.583Z,33.17
2024-03-12T16:55:17.000Z,36.50
2024-03-12T16:57:45.668Z,32.10
2024-03-12T17:00:15.597Z,35.83
2024-03-12T17:02:44.471Z,34.23
2024-03-12T17:05:14.088Z,37.13
2024-03-12T17:07:43.743Z,37.80
2024-03-12T17:10:15.018Z,36.67
2024-03-12T17:12:43.616Z,33.53
2024-03-12T17:15:15.425Z,36.20
2024-03-12T17:17:44.974Z,35.97
2024-03-12T17:20:15.068Z,37.47
2024-03-12T17:22:43.838Z,44.80
2024-03-12T17:25:14.016Z,37.67
2024-03-12T17:27:43.139Z,39.50
2024-03-12T17:30:12.235Z,37.50
2024-03-12T17:32:41.842Z,42.20
2024-03-12T17:35:12.694Z,40.53
2024-03-12T17:37:43.576Z,41.07
2024-03-12T17:40:16.302Z,41.43
2024-03-12T17:42:46.629Z,39.73
2024-03-12T17:45:15.666Z,40.20
2024-03-12T17:47:48.251Z,41.27
2024-03-12T17:50:19.163Z,43.73
2024-03-12T17:52:51.237Z,40.57
2024-03-12T17:55:20.544Z,39.00
2024-03-12T17:57:52.017Z,36.33
2024-03-12T18:00:22.151Z,39.50
2024-03-12T18:02:51.308Z,46.33
2024-03-12T18:05:21.189Z,42.63
2024-03-12T18:07:53.305Z,42.07
2024-03-12T18:10:22.657Z,45.13
2024-03-12T18:12:53.571Z,43.60
2024-03-12T18:15:24.245Z,40.23
2024-03-12T18:17:53.361Z,41.47
2024-03-12T18:20:25.343Z,38.73
2024-03-12T18:22:54.233Z,40.57
2024-03-12T18:25:22.907Z,43.10
2024-03-12T18:27:56.499Z,39.73
2024-03-12T18:30:25.959Z,40.47
2024-03-12T18:32:55.423Z,38.90
2024-03-12T18:35:25.193Z,43.77
2024-03-12T18:37:53.617Z,39.77
2024-03-12T18:40:23.125Z,40.33
2024-03-12T18:42:53.710Z,43.73
2024-03-12T18:45:24.171Z,39.70
2024-03-12T18:47:54.690Z,39.83
2024-03-12T18:50:25.669Z,40.93
2024-03-12T18:52:54.526Z,42.87
2024-03-12T18:55:24.218Z,48.90
2024-03-12T18:57:54.800Z,45.83
2024-03-12T19:00:25.094Z,38.77
2024-03-12T19:02:55.033Z,40.40
2024-03-12T19:05:25.551Z,39.60
2024-03-12T19:07:56.068Z,39.03
2024-03-12T19:10:30.140Z,41.20
2024-03-12T19:13:01.035Z,40.37
2024-03-12T19:15:37.017Z,42.73
2024-03-12T19:18:08.050Z,39.90
2024-03-12T19:20:36.627Z,42.97
2024-03-12T19:23:05.447Z,43.53
2024-03-12T19:25:33.962Z,41.07
2024-03-12T19:28:04.622Z,41.03
2024-03-12T19:30:34.409Z,40.13
2024-03-12T19:33:03.557Z,43.07
2024-03-12T19:35:32.147Z,42.37
2024-03-12T19:38:00.662Z,47.03
2024-03-12T19:40:29.421Z,42.53
2024-03-12T19:43:00.206Z,41.33
2024-03-12T19:45:32.038Z,41.73
2024-03-12T19:48:01.665Z,40.97
2024-03-12T19:50:30.447Z,43.77
2024-03-12T19:52:58.759Z,41.77
2024-03-12T19:55:30.497Z,39.40
2024-03-12T19:58:01.698Z,44.10
2024-03-12T20:00:33.775Z,40.53
2024-03-12T20:03:03.478Z,45.80
2024-03-12T20:05:32.040Z,38.90
2024-03-12T20:08:03.025Z,41.17
2024-03-12T20:10:31.620Z,43.10
2024-03-12T20:13:00.171Z,39.00
2024-03-12T20:15:30.262Z,39.10
2024-03-12T20:18:02.084Z,39.07
2024-03-12T20:20:31.488Z,41.63
2024-03-12T20:22:59.975Z,37.67
2024-03-12T20:25:28.423Z,45.47
2024-03-12T20:27:57.174Z,38.53
2024-03-12T20:30:28.212Z,42.33
2024-03-12T20:32:59.819Z,42.60
2024-03-12T20:35:33.000Z,40.07
2024-03-12T20:38:01.700Z,38.80
2024-03-12T20:40:30.042Z,41.07
2024-03-12T20:43:00.526Z,40.93
2024-03-12T20:45:30.048Z,42.33
2024-03-12T20:47:59.985Z,42.50
2024-03-12T20:50:30.013Z,43.80
2024-03-12T20:52:58.654Z,54.73
2024-03-12T20:55:27.054Z,46.00
2024-03-12T20:57:55.485Z,43.40
2024-03-12T21:00:29.239Z,45.17
2024-03-12T21:02:58.411Z,42.93
2024-03-12T21:05:28.218Z,45.77
2024-03-12T21:07:59.799Z,44.23
2024-03-12T21:10:29.474Z,43.67
2024-03-12T21:12:57.907Z,41.20
2024-03-12T21:15:26.357Z,46.33
2024-03-12T21:17:55.171Z,47.37
2024-03-12T21:20:25.694Z,45.43
2024-03-12T21:22:54.470Z,45.00
2024-03-12T21:25:24.224Z,41.73
2024-03-12T21:27:54.387Z,41.23
2024-03-12T21:30:25.189Z,43.30
2024-03-12T21:32:54.662Z,41.73
2024-03-12T21:35:25.273Z,39.30
2024-03-12T21:37:53.881Z,41.33
2024-03-12T21:40:26.136Z,45.30
2024-03-12T21:42:54.553Z,41.07
2024-03-12T21:45:22.846Z,38.17
2024-03-12T21:47:51.446Z,38.27
2024-03-12T21:50:19.921Z,40.30
2024-03-12T21:52:48.192Z,38.00
2024-03-12T21:55:16.515Z,40.57
2024-03-12T21:57:46.490Z,37.00
2024-03-12T22:00:21.040Z,37.47
2024-03-12T22:02:50.260Z,42.43
2024-03-12T22:05:21.119Z,39.60
2024-03-12T22:07:50.844Z,39.50
2024-03-12T22:10:19.785Z,41.97
2024-03-12T22:12:49.922Z,41.00
2024-03-12T22:15:20.482Z,42.23
2024-03-12T22:17:52.045Z,37.93
2024-03-12T22:20:21.141Z,37.30
2024-03-12T22:22:49.554Z,39.67
2024-03-12T22:25:20.840Z,38.47
2024-03-12T22:27:51.013Z,37.37
2024-03-12T22:30:21.265Z,37.90
2024-03-12T22:32:49.724Z,37.03
2024-03-12T22:35:19.480Z,41.00
2024-03-12T22:37:49.409Z,39.70
2024-03-12T22:40:19.527Z,38.03
2024-03-12T22:42:48.836Z,39.20
2024-03-12T22:45:19.954Z,35.13
2024-03-12T22:47:48.433Z,36.57
2024-03-12T22:50:18.454Z,41.30
2024-03-12T22:52:48.020Z,36.73
2024-03-12T22:55:17.110Z,34.63
2024-03-12T22:57:45.608Z,38.47
2024-03-12T23:00:31.553Z,35.00
2024-03-12T23:03:02.668Z,38.77
2024-03-12T23:05:34.310Z,37.80
2024-03-12T23:08:06.201Z,37.70
2024-03-12T23:10:35.976Z,35.23
2024-03-12T23:13:04.954Z,35.13
2024-03-12T23:15:33.389Z,42.00
2024-03-12T23:18:04.602Z,39.03
2024-03-12T23:20:33.420Z,37.33
2024-03-12T23:23:01.926Z,38.00
2024-03-12T23:25:30.317Z,38.67
2024-03-12T23:28:00.406Z,36.50
2024-03-12T23:30:29.102Z,40.17
2024-03-12T23:32:59.074Z,35.33
2024-03-12T23:35:29.520Z,36.33
2024-03-12T23:37:59.144Z,36.63
2024-03-12T23:40:29.277Z,32.83
2024-03-12T23:42:57.810Z,34.73
2024-03-12T23:45:27.416Z,36.63
2024-03-12T23:47:58.161Z,33.23
2024-03-12T23:50:26.689Z,36.93
2024-03-12T23:52:56.424Z,38.80
2024-03-12T23:55:25.696Z,34.17
2024-03-12T23:57:55.300Z,33.43
